createdAt,value
2018-07-22T00:01:43.704Z,59.50
2018-07-22T00:04:12.284Z,60.50
2018-07-22T00:06:40.916Z,61.50
2018-07-22T00:09:11.304Z,62.00
2018-07-22T00:11:39.947Z,62.30
2018-07-22T00:14:08.735Z,62.70
2018-07-22T00:16:37.550Z,62.60
2018-07-22T00:19:06.263Z,62.30
2018-07-22T00:21:34.890Z,63.00
2018-07-22T00:24:10.205Z,62.90
2018-07-22T00:26:38.915Z,63.20
2018-07-22T00:29:07.635Z,63.70
2018-07-22T00:31:36.197Z,64.00
2018-07-22T00:34:04.871Z,65.10
2018-07-22T00:36:33.522Z,65.60
2018-07-22T00:39:02.271Z,65.90
2018-07-22T00:41:30.958Z,65.90
2018-07-22T00:43:59.565Z,65.90
2018-07-22T00:46:28.125Z,65.60
2018-07-22T00:48:56.707Z,65.50
2018-07-22T00:51:25.429Z,65.40
2018-07-22T00:53:54.013Z,65.70
2018-07-22T00:56:22.656Z,65.80
2018-07-22T00:58:51.194Z,66.10
2018-07-22T01:01:20.135Z,66.00
2018-07-22T01:03:48.926Z,66.50
2018-07-22T01:06:17.541Z,67.10
2018-07-22T01:08:46.067Z,66.60
2018-07-22T01:11:14.656Z,66.60
2018-07-22T01:13:43.322Z,66.40
2018-07-22T01:16:11.909Z,66.60
2018-07-22T01:18:40.558Z,66.70
2018-07-22T01:21:09.116Z,66.60
2018-07-22T01:23:37.688Z,66.90
2018-07-22T01:26:06.450Z,67.60
2018-07-22T01:28:35.055Z,68.00
2018-07-22T01:31:03.664Z,68.40
2018-07-22T01:33:32.338Z,68.80
2018-07-22T01:36:00.920Z,68.80
2018-07-22T01:38:29.530Z,68.60
2018-07-22T01:40:58.122Z,68.90
2018-07-22T01:43:26.672Z,68.90
2018-07-22T01:45:55.238Z,69.40
2018-07-22T01:48:23.830Z,70.00
2018-07-22T01:50:52.394Z,70.60
2018-07-22T01:53:20.978Z,70.50
2018-07-22T01:55:49.538Z,70.20
2018-07-22T01:58:18.177Z,70.20
2018-07-22T02:00:46.703Z,70.20
2018-07-22T02:03:15.343Z,71.10
2018-07-22T02:05:44.062Z,72.00
2018-07-22T02:08:12.711Z,72.60
2018-07-22T02:10:41.330Z,71.90
2018-07-22T02:13:10.201Z,71.60
2018-07-22T02:15:38.770Z,72.00
2018-07-22T02:18:07.386Z,72.10
2018-07-22T02:20:35.957Z,72.10
2018-07-22T02:23:04.582Z,72.80
2018-07-22T02:25:33.164Z,73.50
2018-07-22T02:28:01.712Z,74.10
2018-07-22T02:30:30.417Z,72.80
2018-07-22T02:32:59.324Z,72.90
2018-07-22T02:35:27.891Z,73.50
2018-07-22T02:37:56.539Z,73.70
2018-07-22T02:40:25.127Z,74.10
2018-07-22T02:42:53.771Z,74.70
2018-07-22T02:45:22.322Z,74.90
2018-07-22T02:47:50.954Z,74.10
2018-07-22T02:50:19.506Z,73.30
2018-07-22T02:52:48.068Z,73.60
2018-07-22T02:55:16.642Z,73.70
2018-07-22T02:57:45.220Z,73.20
2018-07-22T03:00:13.816Z,73.00
2018-07-22T03:02:42.412Z,72.70
2018-07-22T03:05:11.010Z,72.70
2018-07-22T03:07:39.558Z,72.90
2018-07-22T03:10:08.130Z,72.90
2018-07-22T03:12:36.726Z,73.70
2018-07-22T03:15:05.850Z,73.00
2018-07-22T03:17:34.417Z,73.00
2018-07-22T03:20:03.018Z,72.90
2018-07-22T03:22:31.630Z,73.00
2018-07-22T03:25:00.248Z,73.00
2018-07-22T03:27:28.794Z,73.00
2018-07-22T03:29:57.371Z,73.10
2018-07-22T03:32:25.955Z,71.80
2018-07-22T03:34:54.510Z,71.00
2018-07-22T03:37:23.077Z,71.30
2018-07-22T03:39:51.702Z,71.30
2018-07-22T03:42:20.298Z,71.20
2018-07-22T03:44:48.890Z,71.10
2018-07-22T03:47:17.477Z,70.50
2018-07-22T03:49:45.991Z,71.30
2018-07-22T03:52:14.556Z,71.80
2018-07-22T03:54:43.186Z,72.00
2018-07-22T03:57:11.827Z,71.20
2018-07-22T03:59:40.397Z,71.10
2018-07-22T04:02:08.954Z,70.60
2018-07-22T04:04:37.518Z,70.80
2018-07-22T04:07:06.159Z,71.30
2018-07-22T04:09:34.773Z,71.10
2018-07-22T04:12:03.405Z,71.00
2018-07-22T04:14:32.003Z,70.10
2018-07-22T04:17:00.624Z,69.70
2018-07-22T04:19:29.212Z,70.00
2018-07-22T04:21:57.803Z,70.00
2018-07-22T04:24:26.421Z,69.60
2018-07-22T04:26:55.013Z,69.20
2018-07-22T04:29:23.632Z,69.80
2018-07-22T04:31:52.211Z,69.90
2018-07-22T04:34:20.765Z,69.50
2018-07-22T04:36:49.330Z,69.60
2018-07-22T04:39:17.929Z,69.10
2018-07-22T04:41:46.515Z,70.10
2018-07-22T04:44:15.059Z,69.10
2018-07-22T04:46:43.611Z,70.30
2018-07-22T04:49:12.250Z,69.50
2018-07-22T04:51:40.843Z,69.40
2018-07-22T04:54:09.415Z,69.00
2018-07-22T04:56:38.131Z,68.40
2018-07-22T04:59:06.803Z,67.90
2018-07-22T05:01:35.363Z,67.40
2018-07-22T05:04:03.927Z,67.40
2018-07-22T05:06:32.466Z,67.30
2018-07-22T05:09:01.031Z,67.10
2018-07-22T05:11:29.550Z,66.30
2018-07-22T05:13:58.091Z,66.30
2018-07-22T05:16:26.676Z,65.30
2018-07-22T05:18:55.253Z,64.20
2018-07-22T05:21:23.806Z,63.40
2018-07-22T05:23:52.351Z,62.10
2018-07-22T05:26:21.038Z,60.10
2018-07-22T05:28:49.617Z,58.30
2018-07-22T05:31:18.235Z,56.50
2018-07-22T05:33:46.891Z,53.50
2018-07-22T05:36:15.535Z,51.60
2018-07-22T05:38:44.182Z,50.00
2018-07-22T05:41:12.788Z,50.20
2018-07-22T05:43:41.474Z,48.60
2018-07-22T05:46:10.065Z,47.00
2018-07-22T05:48:38.637Z,45.10
2018-07-22T05:51:07.202Z,43.40
2018-07-22T05:53:35.778Z,42.70
2018-07-22T05:56:04.382Z,41.80
2018-07-22T05:58:32.970Z,41.40
2018-07-22T06:01:01.657Z,40.90
2018-07-22T06:03:30.345Z,40.90
2018-07-22T06:05:58.935Z,42.30
2018-07-22T06:08:27.536Z,43.10
2018-07-22T06:10:56.216Z,42.80
2018-07-22T06:13:24.769Z,41.50
2018-07-22T06:15:53.364Z,40.70
2018-07-22T06:18:21.943Z,40.10
2018-07-22T06:20:50.519Z,38.90
2018-07-22T06:23:19.212Z,37.70
2018-07-22T06:25:47.817Z,38.40
2018-07-22T06:28:16.420Z,40.30
2018-07-22T06:30:45.048Z,42.40
2018-07-22T06:33:13.690Z,45.00
2018-07-22T06:35:42.275Z,46.20
2018-07-22T06:38:10.941Z,47.40
2018-07-22T06:40:39.565Z,48.50
2018-07-22T06:43:08.272Z,50.00
2018-07-22T06:45:36.852Z,50.30
2018-07-22T06:48:05.493Z,51.00
2018-07-22T06:50:34.123Z,49.50
2018-07-22T06:53:02.686Z,48.90
2018-07-22T06:55:31.317Z,49.10
2018-07-22T06:58:00.007Z,49.00
2018-07-22T07:00:28.572Z,47.20
2018-07-22T07:02:57.159Z,44.20
2018-07-22T07:05:25.808Z,40.60
2018-07-22T07:07:54.435Z,37.40
2018-07-22T07:10:23.033Z,34.80
2018-07-22T07:12:51.637Z,33.70
2018-07-22T07:15:20.223Z,31.90
2018-07-22T07:17:48.835Z,31.70
2018-07-22T07:20:17.497Z,33.10
2018-07-22T07:22:46.151Z,34.30
2018-07-22T07:25:14.763Z,34.60
2018-07-22T07:27:43.362Z,36.10
2018-07-22T07:30:11.951Z,38.00
2018-07-22T07:32:40.567Z,35.80
2018-07-22T07:35:09.153Z,33.10
2018-07-22T07:37:37.729Z,31.20
2018-07-22T07:40:06.408Z,30.50
2018-07-22T07:42:35.003Z,30.00
2018-07-22T07:45:03.845Z,31.10
2018-07-22T07:47:32.587Z,32.40
2018-07-22T07:50:01.403Z,30.50
2018-07-22T07:52:29.983Z,30.00
2018-07-22T07:54:58.650Z,31.30
2018-07-22T07:57:27.297Z,32.50
2018-07-22T07:59:55.951Z,35.20
2018-07-22T08:02:25.729Z,36.30
2018-07-22T08:04:54.585Z,34.30
2018-07-22T08:07:23.215Z,32.10
2018-07-22T08:09:51.799Z,29.80
2018-07-22T08:12:20.418Z,29.00
2018-07-22T08:14:49.046Z,28.20
2018-07-22T08:17:17.641Z,27.40
2018-07-22T08:19:46.276Z,26.60
2018-07-22T08:22:14.988Z,25.60
2018-07-22T08:24:43.891Z,25.10
2018-07-22T08:27:12.729Z,25.50
2018-07-22T08:29:41.324Z,26.00
2018-07-22T08:32:10.013Z,26.70
2018-07-22T08:34:38.729Z,28.10
2018-07-22T08:37:07.312Z,28.10
2018-07-22T08:39:35.893Z,27.40
2018-07-22T08:42:04.614Z,25.30
2018-07-22T08:44:33.345Z,24.50
2018-07-22T08:47:01.962Z,23.40
2018-07-22T08:49:30.761Z,23.10
2018-07-22T08:51:59.450Z,23.40
2018-07-22T08:54:28.059Z,23.20
2018-07-22T08:56:56.641Z,23.50
2018-07-22T08:59:25.207Z,24.70
2018-07-22T09:01:53.879Z,26.20
2018-07-22T09:04:22.491Z,27.40
2018-07-22T09:06:51.160Z,28.20
2018-07-22T09:09:19.822Z,29.70
2018-07-22T09:11:48.509Z,28.20
2018-07-22T09:14:17.039Z,28.80
2018-07-22T09:16:45.599Z,30.30
2018-07-22T09:19:14.261Z,31.90
2018-07-22T09:21:42.899Z,33.40
2018-07-22T09:24:11.484Z,33.40
2018-07-22T09:26:40.140Z,34.00
2018-07-22T09:29:08.821Z,34.70
2018-07-22T09:31:37.499Z,36.10
2018-07-22T09:34:06.205Z,36.00
2018-07-22T09:36:34.884Z,35.40
2018-07-22T09:39:04.470Z,35.00
2018-07-22T09:41:33.128Z,34.30
2018-07-22T09:44:01.694Z,32.70
2018-07-22T09:46:30.367Z,32.60
2018-07-22T09:48:59.022Z,31.60
2018-07-22T09:51:27.718Z,30.00
2018-07-22T09:53:56.357Z,29.50
2018-07-22T09:56:24.973Z,30.00
2018-07-22T09:58:53.573Z,30.60
2018-07-22T10:01:22.243Z,31.00
2018-07-22T10:03:50.863Z,31.20
2018-07-22T10:06:19.520Z,31.40
2018-07-22T10:08:48.149Z,29.90
2018-07-22T10:11:16.810Z,28.90
2018-07-22T10:13:45.331Z,28.20
2018-07-22T10:16:13.905Z,27.10
2018-07-22T10:18:42.473Z,26.80
2018-07-22T10:21:11.035Z,26.90
2018-07-22T10:23:39.604Z,26.00
2018-07-22T10:26:08.185Z,24.90
2018-07-22T10:28:36.962Z,25.60
2018-07-22T10:31:05.623Z,25.50
2018-07-22T10:33:34.325Z,25.70
2018-07-22T10:36:02.945Z,26.90
2018-07-22T10:38:31.581Z,28.00
2018-07-22T10:41:00.191Z,28.90
2018-07-22T10:43:28.790Z,29.10
2018-07-22T10:45:57.409Z,29.30
2018-07-22T10:48:26.011Z,30.00
2018-07-22T10:50:54.664Z,29.30
2018-07-22T10:53:23.294Z,30.10
2018-07-22T10:55:51.813Z,30.70
2018-07-22T10:58:20.423Z,32.50
2018-07-22T11:00:49.097Z,33.20
2018-07-22T11:03:17.741Z,33.20
2018-07-22T11:05:46.391Z,33.60
2018-07-22T11:08:14.965Z,32.90
2018-07-22T11:10:43.603Z,33.10
2018-07-22T11:13:12.217Z,33.80
2018-07-22T11:15:40.807Z,34.70
2018-07-22T11:18:09.451Z,35.30
2018-07-22T11:20:38.125Z,35.00
2018-07-22T11:23:06.763Z,35.20
2018-07-22T11:25:35.396Z,35.00
2018-07-22T11:28:04.121Z,34.90
2018-07-22T11:30:32.871Z,34.70
2018-07-22T11:33:01.522Z,35.20
2018-07-22T11:35:30.135Z,35.40
2018-07-22T11:37:58.852Z,33.60
2018-07-22T11:40:27.458Z,33.10
2018-07-22T11:42:56.075Z,33.20
2018-07-22T11:45:24.698Z,32.60
2018-07-22T11:47:53.278Z,31.40
2018-07-22T11:50:21.945Z,31.00
2018-07-22T11:52:50.554Z,38.20
2018-07-22T11:55:19.148Z,41.30
2018-07-22T11:57:47.778Z,42.90
2018-07-22T12:00:16.515Z,44.10
2018-07-22T12:02:45.175Z,45.50
2018-07-22T12:05:13.790Z,46.70
2018-07-22T12:07:42.456Z,47.60
2018-07-22T12:10:11.042Z,47.80
2018-07-22T12:12:39.816Z,48.20
2018-07-22T12:15:08.390Z,49.20
2018-07-22T12:17:37.076Z,49.80
2018-07-22T12:20:05.740Z,50.30
2018-07-22T12:22:34.402Z,50.00
2018-07-22T12:25:03.072Z,49.60
2018-07-22T12:27:31.848Z,49.60
2018-07-22T12:30:00.511Z,48.50
2018-07-22T12:32:29.179Z,44.40
2018-07-22T12:34:57.781Z,43.20
2018-07-22T12:37:26.471Z,43.20
2018-07-22T12:39:55.120Z,42.80
2018-07-22T12:42:23.994Z,40.60
2018-07-22T12:44:52.862Z,39.60
2018-07-22T12:47:21.546Z,37.30
2018-07-22T12:49:50.356Z,36.20
2018-07-22T12:52:19.010Z,35.30
2018-07-22T12:54:47.594Z,34.90
2018-07-22T12:57:16.439Z,32.90
2018-07-22T12:59:45.114Z,34.70
2018-07-22T13:02:13.870Z,35.50
2018-07-22T13:04:42.459Z,37.20
2018-07-22T13:07:11.098Z,37.50
2018-07-22T13:09:39.715Z,36.90
2018-07-22T13:12:08.353Z,37.30
2018-07-22T13:14:36.935Z,37.30
2018-07-22T13:17:05.560Z,37.00
2018-07-22T13:19:34.153Z,38.10
2018-07-22T13:22:02.739Z,37.80
2018-07-22T13:24:31.451Z,37.60
2018-07-22T13:27:00.073Z,38.20
2018-07-22T13:29:28.639Z,38.30
2018-07-22T13:31:57.233Z,37.70
2018-07-22T13:34:25.886Z,37.90
2018-07-22T13:36:54.465Z,38.50
2018-07-22T13:39:23.168Z,38.20
2018-07-22T13:41:51.765Z,39.20
2018-07-22T13:44:20.418Z,40.30
2018-07-22T13:46:49.009Z,40.50
2018-07-22T13:49:17.626Z,41.00
2018-07-22T13:51:46.246Z,41.70
2018-07-22T13:54:14.884Z,41.80
2018-07-22T13:56:43.488Z,42.80
2018-07-22T13:59:12.081Z,43.20
2018-07-22T14:01:40.742Z,43.10
2018-07-22T14:04:09.375Z,42.70
2018-07-22T14:06:38.014Z,43.10
2018-07-22T14:09:08.208Z,43.50
2018-07-22T14:11:36.911Z,43.90
2018-07-22T14:14:05.548Z,43.80
2018-07-22T14:16:34.207Z,43.90
2018-07-22T14:19:02.898Z,43.40
2018-07-22T14:21:31.753Z,43.00
2018-07-22T14:24:00.400Z,42.60
2018-07-22T14:26:29.150Z,42.10
2018-07-22T14:28:57.778Z,42.00
2018-07-22T14:31:26.426Z,41.60
2018-07-22T14:33:55.089Z,41.30
2018-07-22T14:36:23.736Z,41.50
2018-07-22T14:38:52.406Z,41.80
2018-07-22T14:41:21.034Z,41.40
2018-07-22T14:43:49.716Z,41.60
2018-07-22T14:46:18.480Z,41.60
2018-07-22T14:48:47.098Z,41.20
2018-07-22T14:51:15.719Z,41.30
2018-07-22T14:53:44.331Z,41.30
2018-07-22T14:56:12.919Z,41.30
2018-07-22T14:58:41.505Z,41.30
2018-07-22T15:01:12.439Z,41.30
2018-07-22T15:03:41.816Z,41.20
2018-07-22T15:06:10.460Z,41.30
2018-07-22T15:08:39.098Z,41.40
2018-07-22T15:11:07.762Z,41.50
2018-07-22T15:13:36.629Z,40.60
2018-07-22T15:16:05.496Z,40.90
2018-07-22T15:18:34.354Z,40.40
2018-07-22T15:21:03.114Z,40.90
2018-07-22T15:23:31.999Z,41.20
2018-07-22T15:26:00.661Z,41.10
2018-07-22T15:28:29.366Z,41.30
2018-07-22T15:30:58.080Z,41.20
2018-07-22T15:33:26.684Z,41.00
2018-07-22T15:35:55.309Z,41.50
2018-07-22T15:38:23.935Z,41.80
2018-07-22T15:40:52.645Z,41.00
2018-07-22T15:43:21.277Z,41.00
2018-07-22T15:45:56.220Z,41.10
2018-07-22T15:48:24.900Z,41.20
2018-07-22T15:50:53.554Z,41.30
2018-07-22T15:53:22.166Z,41.00
2018-07-22T15:55:50.906Z,40.40
2018-07-22T15:58:20.234Z,40.00
2018-07-22T16:00:48.868Z,39.20
2018-07-22T16:03:17.504Z,39.10
2018-07-22T16:05:46.224Z,39.00
2018-07-22T16:08:14.845Z,39.20
2018-07-22T16:10:43.499Z,39.30
2018-07-22T16:13:12.099Z,39.20
2018-07-22T16:15:40.755Z,39.30
2018-07-22T16:18:09.366Z,38.90
2018-07-22T16:20:37.945Z,38.90
2018-07-22T16:23:07.860Z,37.90
2018-07-22T16:25:36.467Z,38.30
2018-07-22T16:28:05.117Z,38.40
2018-07-22T16:30:33.743Z,38.60
2018-07-22T16:33:02.398Z,38.30
2018-07-22T16:35:31.004Z,38.00
2018-07-22T16:37:59.636Z,37.50
2018-07-22T16:40:28.271Z,38.30
2018-07-22T16:42:56.893Z,38.20
2018-07-22T16:45:25.474Z,37.90
2018-07-22T16:47:54.115Z,38.60
2018-07-22T16:50:22.729Z,38.70
2018-07-22T16:52:51.333Z,37.60
2018-07-22T16:55:19.995Z,37.90
2018-07-22T16:57:48.627Z,37.90
2018-07-22T17:00:17.276Z,38.00
2018-07-22T17:02:45.891Z,38.70
2018-07-22T17:05:14.557Z,39.00
2018-07-22T17:07:43.255Z,38.80
2018-07-22T17:10:11.822Z,38.40
2018-07-22T17:12:40.593Z,38.30
2018-07-22T17:15:09.213Z,38.10
2018-07-22T17:17:37.836Z,37.20
2018-07-22T17:20:06.502Z,37.40
2018-07-22T17:22:35.087Z,37.10
2018-07-22T17:25:03.707Z,37.40
2018-07-22T17:27:32.430Z,37.80
2018-07-22T17:30:01.103Z,38.50
2018-07-22T17:32:29.895Z,38.30
2018-07-22T17:34:58.595Z,38.10
2018-07-22T17:37:28.128Z,38.30
2018-07-22T17:39:59.654Z,38.70
2018-07-22T17:42:30.299Z,39.20
2018-07-22T17:44:59.159Z,39.70
2018-07-22T17:47:28.703Z,40.40
2018-07-22T17:49:57.686Z,40.40
2018-07-22T17:52:26.580Z,40.40
2018-07-22T17:54:55.217Z,40.50
2018-07-22T17:57:23.834Z,41.10
2018-07-22T17:59:52.501Z,40.40
2018-07-22T18:02:21.186Z,40.40
2018-07-22T18:04:49.778Z,41.40
2018-07-22T18:07:18.413Z,43.30
2018-07-22T18:09:47.057Z,47.30
2018-07-22T18:12:15.772Z,50.00
2018-07-22T18:14:44.462Z,51.00
2018-07-22T18:17:13.094Z,51.50
2018-07-22T18:19:41.712Z,53.80
2018-07-22T18:22:10.324Z,55.00
2018-07-22T18:24:38.978Z,55.20
2018-07-22T18:27:07.599Z,56.10
2018-07-22T18:29:36.341Z,56.90
2018-07-22T18:32:04.979Z,57.30
2018-07-22T18:34:33.608Z,58.20
2018-07-22T18:37:02.292Z,58.30
2018-07-22T18:39:30.800Z,58.30
2018-07-22T18:41:59.365Z,58.60
2018-07-22T18:44:27.998Z,59.10
2018-07-22T18:46:56.695Z,59.30
2018-07-22T18:49:25.364Z,58.60
2018-07-22T18:51:54.275Z,59.50
2018-07-22T18:54:23.207Z,59.20
2018-07-22T18:56:52.211Z,58.90
2018-07-22T18:59:21.206Z,58.90
2018-07-22T19:01:50.319Z,58.60
2018-07-22T19:04:19.220Z,58.50
2018-07-22T19:06:48.225Z,59.50
2018-07-22T19:09:17.085Z,58.90
2018-07-22T19:11:46.092Z,57.90
2018-07-22T19:14:15.083Z,57.80
2018-07-22T19:16:44.023Z,58.30
2018-07-22T19:19:13.200Z,59.30
2018-07-22T19:21:42.131Z,58.20
2018-07-22T19:24:11.106Z,59.80
2018-07-22T19:26:40.297Z,59.80
2018-07-22T19:29:09.271Z,60.60
2018-07-22T19:31:38.245Z,60.60
2018-07-22T19:34:07.208Z,61.80
2018-07-22T19:36:36.099Z,62.10
2018-07-22T19:39:06.981Z,61.70
2018-07-22T19:41:35.920Z,62.50
2018-07-22T19:44:04.887Z,63.70
2018-07-22T19:46:33.778Z,62.80
2018-07-22T19:49:02.874Z,62.80
2018-07-22T19:51:31.838Z,61.80
2018-07-22T19:54:00.742Z,61.60
2018-07-22T19:56:29.831Z,63.30
2018-07-22T19:58:58.799Z,62.80
2018-07-22T20:01:27.856Z,62.70
2018-07-22T20:03:56.920Z,62.90
2018-07-22T20:06:25.975Z,62.80
2018-07-22T20:08:55.025Z,62.90
2018-07-22T20:11:24.071Z,62.90
2018-07-22T20:13:53.098Z,62.70
2018-07-22T20:16:22.180Z,62.20
2018-07-22T20:18:51.217Z,62.80
2018-07-22T20:21:20.261Z,61.90
2018-07-22T20:23:49.380Z,62.00
2018-07-22T20:26:18.599Z,62.20
2018-07-22T20:28:47.569Z,63.80
2018-07-22T20:31:16.379Z,62.70
2018-07-22T20:33:45.426Z,63.00
2018-07-22T20:36:14.597Z,64.10
2018-07-22T20:38:45.027Z,63.80
2018-07-22T20:41:13.751Z,64.50
2018-07-22T20:43:42.540Z,63.50
2018-07-22T20:46:11.312Z,63.80
2018-07-22T20:48:40.054Z,64.30
2018-07-22T20:51:09.099Z,64.60
2018-07-22T20:53:37.939Z,64.50
2018-07-22T20:56:06.621Z,64.70
2018-07-22T20:58:35.282Z,64.20
2018-07-22T21:01:03.938Z,64.70
2018-07-22T21:03:32.548Z,64.50
2018-07-22T21:06:01.198Z,63.60
2018-07-22T21:08:29.934Z,63.60
2018-07-22T21:10:58.908Z,63.30
2018-07-22T21:13:28.130Z,63.20
2018-07-22T21:15:56.706Z,63.50
2018-07-22T21:18:25.282Z,63.30
2018-07-22T21:20:53.869Z,64.30
2018-07-22T21:23:22.461Z,67.30
2018-07-22T21:25:51.126Z,67.00
2018-07-22T21:28:19.784Z,65.80
2018-07-22T21:30:48.458Z,66.00
2018-07-22T21:33:17.104Z,66.50
2018-07-22T21:35:45.846Z,69.10
2018-07-22T21:38:14.567Z,67.60
2018-07-22T21:40:43.217Z,65.80
2018-07-22T21:43:11.792Z,66.00
2018-07-22T21:45:40.455Z,66.90
2018-07-22T21:48:09.108Z,67.20
2018-07-22T21:50:37.845Z,66.40
2018-07-22T21:53:08.335Z,65.90
2018-07-22T21:55:36.904Z,65.80
2018-07-22T21:58:05.573Z,66.10
2018-07-22T22:00:39.488Z,66.70
2018-07-22T22:03:08.124Z,65.90
2018-07-22T22:05:36.730Z,66.30
2018-07-22T22:08:05.432Z,66.10
2018-07-22T22:10:34.053Z,66.50
2018-07-22T22:13:02.672Z,66.10
2018-07-22T22:15:32.129Z,66.00
2018-07-22T22:18:02.041Z,66.10
2018-07-22T22:20:30.967Z,65.90
2018-07-22T22:22:59.654Z,66.00
2018-07-22T22:25:28.316Z,67.30
2018-07-22T22:27:56.903Z,66.70
2018-07-22T22:30:25.622Z,65.10
2018-07-22T22:32:54.233Z,64.30
2018-07-22T22:35:22.881Z,64.70
2018-07-22T22:37:51.472Z,64.80
2018-07-22T22:40:20.030Z,65.10
2018-07-22T22:42:48.608Z,65.80
2018-07-22T22:45:17.170Z,64.30
2018-07-22T22:47:45.746Z,63.50
2018-07-22T22:50:14.322Z,63.00
2018-07-22T22:52:42.966Z,63.10
2018-07-22T22:55:11.537Z,63.90
2018-07-22T22:57:44.757Z,64.70
2018-07-22T23:00:13.418Z,64.10
2018-07-22T23:02:41.986Z,64.10
2018-07-22T23:05:10.562Z,64.30
2018-07-22T23:07:39.138Z,64.50
2018-07-22T23:10:07.737Z,64.70
2018-07-22T23:12:36.314Z,64.60
2018-07-22T23:15:04.926Z,64.40
2018-07-22T23:17:33.608Z,64.70
2018-07-22T23:20:02.201Z,65.30
2018-07-22T23:22:30.771Z,65.80
2018-07-22T23:24:59.343Z,64.70
2018-07-22T23:27:27.900Z,64.70
2018-07-22T23:29:56.483Z,64.80
2018-07-22T23:32:25.020Z,65.40
2018-07-22T23:34:53.576Z,65.80
2018-07-22T23:37:22.171Z,65.50
2018-07-22T23:39:50.735Z,64.70
2018-07-22T23:42:19.310Z,64.20
2018-07-22T23:44:47.997Z,64.10
2018-07-22T23:47:16.569Z,64.50
2018-07-22T23:49:45.196Z,64.30
2018-07-22T23:52:13.755Z,64.20
2018-07-22T23:54:42.301Z,63.80
2018-07-22T23:57:10.876Z,63.40
2018-07-22T23:59:39.457Z,63.70
